Time;durP1;ratioP1;P1;durP2;ratioP2;P2;SDS_P1;SDS_P2;PMS_P1;PMS_P2;Temp;Humidity;BMP_temperature;BMP_pressure;BME280_temperature;BME280_humidity;BME280_pressure;Samples;Min_cycle;Max_cycle;Signal;HPM_P1;HPM_P2
2023/08/18 00:01:50;;;;;;;19.50;9.07;;;19.90;99.90;;;;;;4196680;28;20177;-82
2023/08/18 00:03:50;;;;;;;17.58;8.52;;;19.80;99.90;;;;;;4198857;28;20651;-82
2023/08/18 00:05:51;;;;;;;15.88;7.78;;;19.80;99.90;;;;;;4199888;28;20162;-81
2023/08/18 00:07:52;;;;;;;21.02;8.45;;;19.90;99.90;;;;;;4183487;28;20178;-82
2023/08/18 00:09:53;;;;;;;20.05;8.98;;;20.00;99.90;;;;;;4183479;28;20429;-82
2023/08/18 00:11:53;;;;;;;16.35;7.55;;;20.10;99.90;;;;;;4199991;28;20177;-82
2023/08/18 00:13:54;;;;;;;14.63;8.13;;;20.10;99.90;;;;;;4200010;28;20262;-82
2023/08/18 00:15:55;;;;;;;16.13;8.43;;;20.00;99.90;;;;;;4201178;28;20202;-82
2023/08/18 00:17:56;;;;;;;15.63;9.07;;;20.00;99.90;;;;;;4199740;28;20171;-82
2023/08/18 00:19:56;;;;;;;16.65;8.18;;;20.00;99.90;;;;;;4216705;28;20232;-82
2023/08/18 00:21:57;;;;;;;19.42;8.20;;;20.00;99.90;;;;;;4183392;28;20171;-82
2023/08/18 00:23:58;;;;;;;16.70;8.10;;;20.20;99.90;;;;;;4199992;28;20220;-81
2023/08/18 00:25:59;;;;;;;21.45;8.30;;;20.20;99.90;;;;;;4199817;28;20182;-82
2023/08/18 00:28:00;;;;;;;21.25;8.68;;;20.20;99.90;;;;;;4183113;28;20167;-82
2023/08/18 00:30:00;;;;;;;14.68;7.57;;;20.00;99.90;;;;;;4182961;28;20191;-82
2023/08/18 00:32:01;;;;;;;19.50;8.20;;;20.00;99.90;;;;;;4199457;28;20166;-82
2023/08/18 00:34:03;;;;;;;16.55;8.25;;;20.10;99.90;;;;;;4199567;28;20653;-82
2023/08/18 00:36:04;;;;;;;12.52;6.32;;;20.10;99.90;;;;;;4182840;28;20214;-82
2023/08/18 00:38:04;;;;;;;20.40;7.75;;;20.30;99.90;;;;;;4182848;28;20167;-82
2023/08/18 00:40:06;;;;;;;15.68;7.68;;;20.20;99.90;;;;;;4182783;28;20199;-82
2023/08/18 00:42:09;;;;;;;13.82;6.55;;;20.20;99.90;;;;;;4183132;28;20251;-82
2023/08/18 00:44:10;;;;;;;16.95;6.97;;;20.10;99.90;;;;;;4199530;28;20570;-82
2023/08/18 00:46:11;;;;;;;14.70;7.47;;;20.10;99.90;;;;;;4199491;28;20182;-82
2023/08/18 00:48:13;;;;;;;14.80;7.22;;;20.30;99.90;;;;;;4199546;28;20197;-82
2023/08/18 00:50:15;;;;;;;12.32;6.28;;;20.50;99.90;;;;;;4199506;28;20221;-82
2023/08/18 00:52:18;;;;;;;15.50;7.35;;;20.40;99.90;;;;;;4199421;28;20171;-82
2023/08/18 00:54:19;;;;;;;12.60;6.88;;;20.40;99.90;;;;;;4199460;28;20181;-82
2023/08/18 00:56:20;;;;;;;14.55;7.38;;;20.20;99.90;;;;;;4199290;28;20214;-82
2023/08/18 00:58:22;;;;;;;16.70;7.28;;;20.20;99.90;;;;;;4199241;28;20164;-82
2023/08/18 01:00:23;;;;;;;15.23;6.55;;;20.10;99.90;;;;;;4200459;28;20226;-82
2023/08/18 01:02:25;;;;;;;14.75;7.35;;;20.10;99.90;;;;;;4198905;28;20594;-82
2023/08/18 01:04:25;;;;;;;22.05;7.88;;;20.10;99.90;;;;;;4182550;28;20183;-82
2023/08/18 01:06:26;;;;;;;13.25;7.43;;;20.00;99.90;;;;;;4200372;28;20516;-82
2023/08/18 01:08:27;;;;;;;18.05;7.78;;;19.90;99.90;;;;;;4199169;28;20757;-82
2023/08/18 01:10:30;;;;;;;17.25;7.45;;;19.90;99.90;;;;;;4199145;28;20713;-82
2023/08/18 01:12:41;;;;;;;14.80;7.18;;;20.00;99.90;;;;;;4182534;28;20278;-82
2023/08/18 01:15:06;;;;;;;16.17;7.22;;;20.10;99.90;;;;;;4199525;28;20167;-82
2023/08/18 01:17:15;;;;;;;17.98;6.88;;;20.20;99.90;;;;;;4182175;28;20652;-82
2023/08/18 01:19:20;;;;;;;15.18;7.55;;;20.20;99.90;;;;;;4200244;28;20170;-82
2023/08/18 01:21:22;;;;;;;13.27;6.78;;;20.20;99.90;;;;;;4198870;28;20226;-82
2023/08/18 01:23:35;;;;;;;15.00;6.90;;;20.10;99.90;;;;;;4182490;28;20218;-82
2023/08/18 01:25:35;;;;;;;10.48;6.30;;;20.10;99.90;;;;;;4198997;28;20630;-82
2023/08/18 01:27:36;;;;;;;12.32;7.07;;;20.10;99.90;;;;;;4182208;28;20167;-82
2023/08/18 01:29:38;;;;;;;16.38;7.78;;;20.10;99.90;;;;;;4182179;28;20176;-81
2023/08/18 01:31:39;;;;;;;26.73;8.23;;;20.10;99.90;;;;;;4198738;28;20764;-81
2023/08/18 01:33:49;;;;;;;15.80;6.70;;;20.00;99.90;;;;;;4198763;28;20178;-81
2023/08/18 01:35:54;;;;;;;16.52;7.47;;;19.90;99.90;;;;;;4181980;28;20217;-82
2023/08/18 01:37:58;;;;;;;15.10;7.20;;;20.00;99.90;;;;;;4198785;28;20252;-82
2023/08/18 01:40:00;;;;;;;23.67;7.70;;;20.10;99.90;;;;;;4198716;28;20191;-82
2023/08/18 01:42:02;;;;;;;12.93;7.47;;;20.10;99.90;;;;;;4182012;28;20171;-82
2023/08/18 01:44:06;;;;;;;15.23;8.15;;;20.20;99.90;;;;;;4198655;28;20178;-82
2023/08/18 01:46:07;;;;;;;18.42;7.53;;;20.30;99.90;;;;;;4198517;28;20243;-82
2023/08/18 01:48:07;;;;;;;17.45;7.70;;;20.30;99.90;;;;;;4198576;28;20210;-82
2023/08/18 01:50:10;;;;;;;16.58;6.50;;;20.40;99.90;;;;;;4198381;28;20183;-82
2023/08/18 01:52:11;;;;;;;15.52;7.40;;;20.50;99.90;;;;;;4198521;28;20179;-82
2023/08/18 01:54:13;;;;;;;16.52;7.20;;;20.50;99.90;;;;;;4181982;28;20277;-82
2023/08/18 01:56:14;;;;;;;15.50;6.53;;;20.30;99.90;;;;;;4181812;28;20579;-82
2023/08/18 01:58:14;;;;;;;17.08;8.23;;;20.50;99.90;;;;;;4215046;28;20162;-82
2023/08/18 02:00:15;;;;;;;17.95;7.85;;;20.60;99.90;;;;;;4181804;28;20199;-82
2023/08/18 02:02:16;;;;;;;14.63;7.30;;;20.80;99.90;;;;;;4214996;28;20194;-82
2023/08/18 02:04:17;;;;;;;14.65;6.40;;;20.90;99.90;;;;;;4198277;28;20159;-82
2023/08/18 02:06:18;;;;;;;13.00;6.70;;;20.90;99.90;;;;;;4181759;28;20175;-82
2023/08/18 02:08:20;;;;;;;14.35;7.45;;;20.80;99.90;;;;;;4198233;28;20171;-82
2023/08/18 02:10:21;;;;;;;14.20;7.55;;;20.70;99.90;;;;;;4181394;28;20564;-82
2023/08/18 02:12:22;;;;;;;19.75;7.03;;;20.60;99.90;;;;;;4214788;28;20185;-82
2023/08/18 02:14:23;;;;;;;14.18;6.97;;;20.50;99.90;;;;;;4198080;28;20301;-82
2023/08/18 02:16:23;;;;;;;14.68;6.70;;;20.50;99.90;;;;;;4181472;28;20215;-82
2023/08/18 02:18:24;;;;;;;15.07;6.78;;;20.50;99.90;;;;;;4198142;28;20193;-82
2023/08/18 02:20:25;;;;;;;14.18;7.05;;;20.50;99.90;;;;;;4181133;28;20253;-82
2023/08/18 02:22:26;;;;;;;13.63;7.25;;;20.40;99.90;;;;;;4198177;28;20178;-82
2023/08/18 02:24:28;;;;;;;17.13;7.05;;;20.30;99.90;;;;;;4198050;28;20539;-82
2023/08/18 02:26:28;;;;;;;17.58;7.55;;;20.30;99.90;;;;;;4197073;28;20665;-82
2023/08/18 02:28:29;;;;;;;17.05;7.75;;;20.30;99.90;;;;;;4181134;28;20172;-82
2023/08/18 02:30:30;;;;;;;15.52;6.97;;;20.40;99.90;;;;;;4197896;28;20198;-82
2023/08/18 02:32:31;;;;;;;15.60;7.10;;;20.40;99.90;;;;;;4197685;28;20725;-82
2023/08/18 02:34:32;;;;;;;16.63;8.00;;;20.50;99.90;;;;;;4197723;28;20543;-82
2023/08/18 02:36:34;;;;;;;12.25;7.53;;;20.50;99.90;;;;;;4197741;28;20222;-82
2023/08/18 02:38:35;;;;;;;18.00;8.05;;;20.50;99.90;;;;;;4197801;28;20670;-82
2023/08/18 02:40:36;;;;;;;17.05;7.63;;;20.50;99.90;;;;;;4181223;28;20625;-82
2023/08/18 02:42:37;;;;;;;15.98;7.32;;;20.50;99.90;;;;;;4197428;28;20167;-82
2023/08/18 02:44:37;;;;;;;15.35;6.82;;;20.50;99.90;;;;;;4197693;28;20178;-82
2023/08/18 02:46:38;;;;;;;14.07;7.03;;;20.50;99.90;;;;;;4197402;28;20227;-81
2023/08/18 02:48:39;;;;;;;18.77;8.88;;;20.50;99.90;;;;;;4197532;28;20178;-82
2023/08/18 02:50:40;;;;;;;12.27;6.70;;;20.40;99.90;;;;;;4180959;28;20595;-82
2023/08/18 02:52:40;;;;;;;14.82;8.02;;;20.50;99.90;;;;;;4197583;28;20178;-82
2023/08/18 02:54:41;;;;;;;18.15;7.30;;;20.50;99.90;;;;;;4197403;28;20220;-82
2023/08/18 02:56:42;;;;;;;17.98;7.50;;;20.40;99.90;;;;;;4197315;28;20198;-82
2023/08/18 02:58:42;;;;;;;18.25;8.65;;;20.50;99.90;;;;;;4197561;28;20174;-82
2023/08/18 03:00:43;;;;;;;14.75;7.40;;;20.50;99.90;;;;;;4197293;28;20228;-82
2023/08/18 03:02:44;;;;;;;16.30;7.15;;;20.40;99.90;;;;;;4180901;28;20591;-82
2023/08/18 03:04:45;;;;;;;13.05;6.97;;;20.40;99.90;;;;;;4197388;28;20639;-82
2023/08/18 03:06:46;;;;;;;19.00;7.75;;;20.40;99.90;;;;;;4197072;28;20689;-81
2023/08/18 03:08:47;;;;;;;19.88;9.00;;;20.50;99.90;;;;;;4197471;28;20163;-82
2023/08/18 03:10:59;;;;;;;15.75;7.95;;;20.50;99.90;;;;;;4198437;28;20655;-82
2023/08/18 03:13:03;;;;;;;16.23;7.72;;;20.50;99.90;;;;;;4180667;28;20179;-82
2023/08/18 03:15:05;;;;;;;17.35;7.25;;;20.50;99.90;;;;;;4197152;28;20205;-81
2023/08/18 03:17:07;;;;;;;24.65;8.93;;;20.50;99.90;;;;;;4198408;28;20171;-82
2023/08/18 03:19:08;;;;;;;19.75;8.80;;;20.50;99.90;;;;;;4196974;28;20171;-82
2023/08/18 03:21:09;;;;;;;21.75;8.90;;;20.40;99.90;;;;;;4180346;28;20195;-82
2023/08/18 03:23:14;;;;;;;18.35;7.53;;;20.30;99.90;;;;;;4180555;28;20644;-82
2023/08/18 03:25:15;;;;;;;19.88;8.20;;;20.30;99.90;;;;;;4196922;28;20270;-82
2023/08/18 03:27:15;;;;;;;15.48;6.97;;;20.20;99.90;;;;;;4196855;28;20174;-82
2023/08/18 03:29:16;;;;;;;21.40;9.13;;;20.20;99.90;;;;;;4180380;28;20229;-82
2023/08/18 03:31:17;;;;;;;16.55;8.32;;;20.30;99.90;;;;;;4198166;28;20193;-83
2023/08/18 03:33:18;;;;;;;21.55;8.55;;;20.30;99.90;;;;;;4196916;28;20201;-82
2023/08/18 03:35:18;;;;;;;21.77;8.80;;;20.30;99.90;;;;;;4213761;28;20217;-82
2023/08/18 03:37:19;;;;;;;19.02;8.32;;;20.30;99.90;;;;;;4180195;28;20266;-82
2023/08/18 03:39:20;;;;;;;21.58;8.90;;;20.40;99.90;;;;;;4196809;28;20540;-82
2023/08/18 03:41:21;;;;;;;22.65;10.20;;;20.40;99.90;;;;;;4180386;28;20196;-82
2023/08/18 03:43:21;;;;;;;15.65;7.53;;;20.40;99.90;;;;;;4180150;28;20167;-82
2023/08/18 03:45:23;;;;;;;16.60;7.55;;;20.50;99.90;;;;;;4196924;28;20544;-82
2023/08/18 03:47:23;;;;;;;17.83;8.45;;;20.50;99.90;;;;;;4196722;28;20175;-82
2023/08/18 03:49:24;;;;;;;19.58;7.78;;;20.60;99.90;;;;;;4180859;28;20206;-82
2023/08/18 03:51:25;;;;;;;21.70;8.40;;;20.60;99.90;;;;;;4180065;28;20220;-82
2023/08/18 03:53:26;;;;;;;19.75;9.40;;;20.50;99.90;;;;;;4180120;28;20179;-82
2023/08/18 03:55:27;;;;;;;17.08;7.75;;;20.50;99.90;;;;;;4179915;28;20206;-82
2023/08/18 03:57:28;;;;;;;21.67;8.80;;;20.70;99.90;;;;;;4196614;28;20170;-82
2023/08/18 03:59:28;;;;;;;19.77;8.90;;;20.90;99.90;;;;;;4196612;28;20204;-82
2023/08/18 04:01:29;;;;;;;23.08;8.20;;;20.80;99.90;;;;;;4180181;28;20179;-82
2023/08/18 04:03:30;;;;;;;18.23;8.15;;;20.70;99.90;;;;;;4196483;28;20167;-82
2023/08/18 04:05:31;;;;;;;22.20;9.10;;;20.70;99.90;;;;;;4196745;28;20271;-82
2023/08/18 04:07:32;;;;;;;23.33;9.73;;;20.60;99.90;;;;;;4196676;28;20178;-82
2023/08/18 04:09:33;;;;;;;25.85;10.30;;;20.50;99.90;;;;;;4196682;28;20205;-82
2023/08/18 04:11:34;;;;;;;21.55;9.15;;;20.50;99.90;;;;;;4196647;28;20163;-82
2023/08/18 04:13:35;;;;;;;17.10;8.40;;;20.50;99.90;;;;;;4196794;28;20174;-82
2023/08/18 04:15:35;;;;;;;20.65;8.88;;;20.40;99.90;;;;;;4196756;28;20285;-82
2023/08/18 04:17:36;;;;;;;20.73;10.38;;;20.40;99.90;;;;;;4196430;28;20236;-82
2023/08/18 04:19:37;;;;;;;17.83;8.35;;;20.40;99.90;;;;;;4196474;28;20175;-82
2023/08/18 04:21:38;;;;;;;23.35;7.93;;;20.30;99.90;;;;;;4196667;28;20652;-82
2023/08/18 04:23:39;;;;;;;24.13;9.48;;;20.30;99.90;;;;;;4196462;28;20179;-82
2023/08/18 04:25:43;;;;;;;24.20;10.05;;;20.30;99.90;;;;;;4196422;28;20175;-82
2023/08/18 04:27:44;;;;;;;22.75;10.65;;;20.30;99.90;;;;;;4196398;28;20174;-82
2023/08/18 04:29:45;;;;;;;24.48;9.88;;;20.40;99.90;;;;;;4196600;28;20167;-82
2023/08/18 04:31:46;;;;;;;24.42;10.05;;;20.40;99.90;;;;;;4179829;28;20229;-82
2023/08/18 04:33:52;;;;;;;19.63;8.80;;;20.40;99.90;;;;;;4196760;28;20258;-82
2023/08/18 04:35:53;;;;;;;22.88;9.35;;;20.30;99.90;;;;;;4179728;28;20219;-82
2023/08/18 04:37:53;;;;;;;20.88;9.13;;;20.30;99.90;;;;;;4179910;28;20659;-82
2023/08/18 04:39:55;;;;;;;21.90;8.98;;;20.30;99.90;;;;;;4213141;28;20189;-82
2023/08/18 04:41:56;;;;;;;18.95;8.38;;;20.30;99.90;;;;;;4196534;28;20167;-82
2023/08/18 04:43:57;;;;;;;20.40;9.25;;;20.30;99.90;;;;;;4196661;28;20183;-82
2023/08/18 04:46:01;;;;;;;24.42;9.90;;;20.30;99.90;;;;;;4196472;28;20227;-82
2023/08/18 04:48:03;;;;;;;25.33;10.13;;;20.10;99.90;;;;;;4196268;28;20520;-82
2023/08/18 04:50:06;;;;;;;18.77;8.80;;;20.10;99.90;;;;;;4182210;28;20228;-82
2023/08/18 04:52:10;;;;;;;19.95;9.45;;;20.10;99.90;;;;;;4182776;28;20214;-81
2023/08/18 04:54:11;;;;;;;25.00;9.80;;;20.20;99.90;;;;;;4182926;28;20180;-82
2023/08/18 04:56:12;;;;;;;27.67;10.35;;;20.20;99.90;;;;;;4199238;28;20317;-82
2023/08/18 04:58:13;;;;;;;22.55;10.25;;;20.30;99.90;;;;;;4199376;28;20167;-82
2023/08/18 05:00:14;;;;;;;25.38;10.10;;;20.30;99.90;;;;;;4182572;28;20270;-82
2023/08/18 05:02:15;;;;;;;20.00;8.80;;;20.30;99.90;;;;;;4182535;28;20195;-82
2023/08/18 05:04:16;;;;;;;20.55;9.40;;;20.30;99.90;;;;;;4182760;28;20769;-82
2023/08/18 05:06:17;;;;;;;22.05;10.82;;;20.10;99.90;;;;;;4200499;28;20209;-82
2023/08/18 05:08:18;;;;;;;22.20;8.55;;;19.90;99.90;;;;;;4199179;28;20182;-82
2023/08/18 05:10:19;;;;;;;20.63;8.85;;;20.10;99.90;;;;;;4198918;28;20195;-82
2023/08/18 05:12:20;;;;;;;23.38;9.23;;;20.30;99.90;;;;;;4182416;28;20589;-82
2023/08/18 05:14:21;;;;;;;25.92;9.93;;;20.30;99.90;;;;;;4199052;28;20178;-82
2023/08/18 05:16:22;;;;;;;28.98;9.95;;;20.30;99.90;;;;;;4182441;28;20273;-82
2023/08/18 05:18:23;;;;;;;29.40;9.88;;;20.30;99.90;;;;;;4182414;28;20171;-82
2023/08/18 05:20:24;;;;;;;25.88;11.32;;;20.20;99.90;;;;;;4198831;28;20674;-82
2023/08/18 05:22:25;;;;;;;32.38;10.88;;;20.30;99.90;;;;;;4198975;28;20209;-82
2023/08/18 05:24:26;;;;;;;30.50;11.55;;;20.30;99.90;;;;;;4198967;28;20253;-82
2023/08/18 05:26:26;;;;;;;29.77;11.40;;;20.20;99.90;;;;;;4182451;28;20175;-82
2023/08/18 05:28:28;;;;;;;31.92;13.13;;;20.20;99.90;;;;;;4198818;28;20177;-82
2023/08/18 05:30:29;;;;;;;30.33;10.98;;;20.20;99.90;;;;;;4198610;28;20236;-83
2023/08/18 05:32:29;;;;;;;29.27;12.10;;;20.00;99.90;;;;;;4198713;28;20162;-82
2023/08/18 05:34:30;;;;;;;26.13;11.00;;;20.00;99.90;;;;;;4198568;28;20186;-82
2023/08/18 05:36:34;;;;;;;25.90;9.90;;;19.90;99.90;;;;;;4198682;28;20247;-82
2023/08/18 05:38:34;;;;;;;29.50;10.88;;;20.30;99.90;;;;;;4198746;28;20673;-82
2023/08/18 05:40:35;;;;;;;25.98;10.95;;;20.20;99.90;;;;;;4215235;28;20268;-82
2023/08/18 05:42:36;;;;;;;36.33;11.98;;;20.10;99.90;;;;;;4181992;28;20179;-82
2023/08/18 05:44:37;;;;;;;33.35;11.68;;;20.30;99.90;;;;;;4199821;28;20163;-82
2023/08/18 05:46:37;;;;;;;29.27;10.25;;;20.30;99.90;;;;;;4198361;28;20187;-82
2023/08/18 05:48:38;;;;;;;28.05;11.23;;;19.90;99.90;;;;;;4198396;28;20182;-82
2023/08/18 05:50:40;;;;;;;27.90;11.00;;;20.00;99.90;;;;;;4215107;28;20284;-82
2023/08/18 05:52:41;;;;;;;29.00;12.05;;;20.00;99.90;;;;;;4198317;28;20682;-82
2023/08/18 05:54:41;;;;;;;27.27;11.52;;;19.90;99.90;;;;;;4198604;28;20813;-82
2023/08/18 05:56:42;;;;;;;26.92;11.52;;;20.00;99.90;;;;;;4215153;28;20285;-82
2023/08/18 05:58:43;;;;;;;29.75;10.60;;;20.00;99.90;;;;;;4198609;28;20167;-82
2023/08/18 06:00:44;;;;;;;31.83;11.43;;;20.00;99.90;;;;;;4198196;28;20278;-82
2023/08/18 06:02:45;;;;;;;32.78;13.05;;;19.70;99.90;;;;;;4198138;28;20171;-82
2023/08/18 06:04:46;;;;;;;33.50;12.13;;;19.90;99.90;;;;;;4198238;28;20229;-82
2023/08/18 06:06:47;;;;;;;36.58;12.07;;;19.90;99.90;;;;;;4198418;28;20175;-83
2023/08/18 06:08:48;;;;;;;34.35;11.27;;;19.80;99.90;;;;;;4198070;28;20171;-81
2023/08/18 06:10:52;;;;;;;29.88;11.02;;;19.90;99.90;;;;;;4197955;28;20248;-83
2023/08/18 06:12:52;;;;;;;28.40;10.98;;;19.90;99.90;;;;;;4181498;28;20529;-81
2023/08/18 06:14:53;;;;;;;31.83;12.15;;;20.00;99.90;;;;;;4181604;28;20323;-82
2023/08/18 06:16:54;;;;;;;32.75;11.90;;;20.10;99.90;;;;;;4181250;28;20265;-82
2023/08/18 06:18:54;;;;;;;26.13;11.35;;;20.20;99.90;;;;;;4198065;28;20257;-82
2023/08/18 06:20:55;;;;;;;25.33;11.60;;;20.00;99.90;;;;;;4197767;28;20191;-82
2023/08/18 06:22:56;;;;;;;31.65;10.60;;;20.00;99.90;;;;;;4199205;28;20713;-82
2023/08/18 06:24:57;;;;;;;29.33;11.60;;;20.00;99.90;;;;;;4181209;28;20203;-82
2023/08/18 06:26:58;;;;;;;32.97;12.50;;;19.90;99.90;;;;;;4181325;28;20214;-82
2023/08/18 06:28:59;;;;;;;29.13;11.98;;;19.90;99.90;;;;;;4181268;28;20168;-82
2023/08/18 06:31:07;;;;;;;28.00;10.68;;;19.90;99.90;;;;;;4198008;28;20190;-82
2023/08/18 06:33:08;;;;;;;27.98;11.02;;;20.10;99.90;;;;;;4181190;28;20528;-82
2023/08/18 06:35:08;;;;;;;25.73;10.63;;;20.10;99.90;;;;;;4181197;28;20183;-82
2023/08/18 06:37:10;;;;;;;25.35;10.82;;;20.10;99.90;;;;;;4197710;28;20217;-82
2023/08/18 06:39:11;;;;;;;30.50;11.40;;;20.30;99.90;;;;;;4197494;28;20179;-82
2023/08/18 06:41:11;;;;;;;29.52;10.95;;;20.20;99.90;;;;;;4198993;28;20573;-82
2023/08/18 06:43:12;;;;;;;36.97;11.30;;;20.10;99.90;;;;;;4197634;28;20179;-82
2023/08/18 06:45:13;;;;;;;32.05;12.77;;;19.90;99.90;;;;;;4197592;28;20204;-83
2023/08/18 06:47:14;;;;;;;29.45;11.85;;;19.70;99.90;;;;;;4197383;28;20182;-82
2023/08/18 06:49:15;;;;;;;31.30;11.43;;;19.70;99.90;;;;;;4180972;28;20167;-82
2023/08/18 06:51:15;;;;;;;32.58;12.55;;;19.70;99.90;;;;;;4180987;28;20223;-82
2023/08/18 06:53:16;;;;;;;26.42;11.32;;;19.80;99.90;;;;;;4180825;28;20366;-82
2023/08/18 06:55:17;;;;;;;34.72;11.57;;;19.90;99.90;;;;;;4197376;28;20213;-84
2023/08/18 06:57:19;;;;;;;30.23;12.05;;;19.90;99.90;;;;;;4181298;28;20196;-82
2023/08/18 06:59:20;;;;;;;33.38;11.38;;;19.90;99.90;;;;;;4180751;28;20217;-82
2023/08/18 07:01:20;;;;;;;30.83;11.85;;;19.80;99.90;;;;;;4180645;28;20200;-82
2023/08/18 07:03:21;;;;;;;32.28;11.50;;;19.60;99.90;;;;;;4197331;28;20163;-82
2023/08/18 07:05:24;;;;;;;32.00;11.48;;;19.50;99.90;;;;;;4197156;28;20228;-82
2023/08/18 07:07:25;;;;;;;32.42;10.60;;;19.80;99.90;;;;;;4180590;28;20619;-82
2023/08/18 07:09:26;;;;;;;31.30;10.73;;;19.80;99.90;;;;;;4197422;28;20274;-81
2023/08/18 07:11:27;;;;;;;24.17;9.50;;;19.90;99.90;;;;;;4196696;28;20669;-82
2023/08/18 07:13:28;;;;;;;29.67;10.25;;;20.00;99.90;;;;;;4180584;28;20187;-82
2023/08/18 07:15:29;;;;;;;22.67;10.75;;;20.00;99.90;;;;;;4214077;28;20721;-82
2023/08/18 07:17:30;;;;;;;30.60;10.93;;;20.10;99.90;;;;;;4180658;28;20179;-82
2023/08/18 07:19:30;;;;;;;29.35;10.77;;;20.10;99.90;;;;;;4197121;28;20261;-82
2023/08/18 07:21:31;;;;;;;29.40;10.32;;;20.00;99.90;;;;;;4196905;28;20170;-82
2023/08/18 07:23:32;;;;;;;26.98;10.13;;;20.10;99.90;;;;;;4197097;28;20174;-82
2023/08/18 07:25:33;;;;;;;27.95;12.00;;;20.10;99.90;;;;;;4180605;28;20163;-82
2023/08/18 07:27:33;;;;;;;30.48;10.60;;;20.10;99.90;;;;;;4198315;28;20174;-82
2023/08/18 07:29:34;;;;;;;31.75;11.05;;;20.10;99.90;;;;;;4180518;28;20254;-82
2023/08/18 07:31:37;;;;;;;33.38;11.25;;;20.00;99.90;;;;;;4196657;28;20170;-82
2023/08/18 07:33:38;;;;;;;32.58;12.43;;;19.80;99.90;;;;;;4180460;28;20254;-82
2023/08/18 07:35:38;;;;;;;33.15;11.57;;;20.00;99.90;;;;;;4198202;28;20191;-82
2023/08/18 07:37:39;;;;;;;31.42;10.80;;;20.00;99.90;;;;;;4197005;28;20197;-82
2023/08/18 07:39:40;;;;;;;30.02;11.20;;;20.10;99.90;;;;;;4197022;28;20171;-82
2023/08/18 07:41:41;;;;;;;30.15;10.60;;;20.10;99.90;;;;;;4180396;28;20510;-82
2023/08/18 07:43:42;;;;;;;27.92;10.65;;;20.10;99.90;;;;;;4197127;28;20201;-82
2023/08/18 07:45:42;;;;;;;30.60;11.68;;;19.90;99.90;;;;;;4196834;28;20163;-82
2023/08/18 07:47:44;;;;;;;34.45;10.48;;;19.90;99.90;;;;;;4213767;28;20636;-82
2023/08/18 07:49:45;;;;;;;29.10;11.88;;;19.70;99.90;;;;;;4180067;28;20170;-82
2023/08/18 07:51:46;;;;;;;29.65;9.95;;;19.80;99.90;;;;;;4196767;28;20171;-82
2023/08/18 07:53:47;;;;;;;31.05;11.85;;;20.10;99.90;;;;;;4196836;28;20220;-83
2023/08/18 07:55:47;;;;;;;27.42;10.52;;;20.40;99.90;;;;;;4196814;28;20218;-82
2023/08/18 07:57:49;;;;;;;30.73;10.07;;;20.60;99.90;;;;;;4196832;28;20708;-82
2023/08/18 07:59:49;;;;;;;24.85;10.75;;;20.50;99.90;;;;;;4179834;28;20273;-83
2023/08/18 08:01:50;;;;;;;29.35;10.40;;;20.30;99.90;;;;;;4196568;28;20159;-83
2023/08/18 08:03:51;;;;;;;27.85;9.75;;;20.40;99.90;;;;;;4196432;28;20181;-82
2023/08/18 08:05:52;;;;;;;21.70;9.27;;;20.50;99.90;;;;;;4197840;28;20171;-82
2023/08/18 08:07:53;;;;;;;31.52;11.73;;;20.30;99.90;;;;;;4196369;28;20179;-82
2023/08/18 08:09:56;;;;;;;28.75;10.48;;;20.10;99.90;;;;;;4196622;28;20552;-82
2023/08/18 08:11:57;;;;;;;29.58;11.80;;;20.00;99.90;;;;;;4196645;28;20182;-82
2023/08/18 08:13:58;;;;;;;29.60;10.38;;;20.10;99.90;;;;;;4196518;28;20171;-82
2023/08/18 08:15:58;;;;;;;30.58;10.05;;;20.30;99.90;;;;;;4196631;28;20207;-82
2023/08/18 08:17:59;;;;;;;27.00;10.05;;;20.20;99.90;;;;;;4196451;28;20544;-83
2023/08/18 08:20:11;;;;;;;28.50;10.07;;;20.50;99.90;;;;;;4196449;28;20598;-83
2023/08/18 08:22:11;;;;;;;28.00;9.60;;;20.90;99.90;;;;;;4196421;28;20240;-82
2023/08/18 08:24:12;;;;;;;25.48;9.93;;;21.30;99.90;;;;;;4197959;28;20171;-82
2023/08/18 08:26:13;;;;;;;24.55;9.13;;;21.40;99.90;;;;;;4183080;28;20167;-82
2023/08/18 08:28:14;;;;;;;24.10;10.20;;;21.20;99.90;;;;;;4183101;28;20175;-82
2023/08/18 08:30:14;;;;;;;26.58;9.52;;;21.00;99.90;;;;;;4183005;28;20222;-82
2023/08/18 08:32:15;;;;;;;29.45;10.45;;;20.90;99.90;;;;;;4200494;28;20170;-82
2023/08/18 08:34:16;;;;;;;29.38;10.40;;;21.10;99.90;;;;;;4182404;28;20160;-82
2023/08/18 08:36:17;;;;;;;23.85;10.02;;;20.90;99.90;;;;;;4182085;28;20215;-82
2023/08/18 08:38:17;;;;;;;24.38;9.45;;;21.20;99.90;;;;;;4199531;28;20163;-83
2023/08/18 08:40:20;;;;;;;24.83;8.52;;;21.20;99.90;;;;;;4182829;28;20203;-82
2023/08/18 08:42:22;;;;;;;24.98;9.50;;;21.10;99.90;;;;;;4183029;28;20258;-82
2023/08/18 08:44:24;;;;;;;26.92;10.45;;;21.30;99.90;;;;;;4199445;28;20598;-82
2023/08/18 08:46:25;;;;;;;29.25;10.38;;;21.80;99.90;;;;;;4199486;28;20190;-82
2023/08/18 08:48:40;;;;;;;18.45;9.48;;;22.00;99.90;;;;;;4199395;28;20178;-82
2023/08/18 08:50:47;;;;;;;27.35;10.35;;;21.90;99.90;;;;;;4199547;28;20671;-82
2023/08/18 08:52:51;;;;;;;23.90;10.05;;;21.90;99.90;;;;;;4198363;28;20181;-82
2023/08/18 08:55:00;;;;;;;26.55;9.88;;;21.80;99.90;;;;;;4199489;28;20631;-82
2023/08/18 08:57:03;;;;;;;27.25;10.85;;;21.90;99.90;;;;;;4200572;28;20210;-82
2023/08/18 08:59:04;;;;;;;27.35;11.35;;;21.60;99.90;;;;;;4182860;28;20528;-82
2023/08/18 09:01:06;;;;;;;28.23;10.45;;;21.80;99.90;;;;;;4182730;28;20224;-82
2023/08/18 09:03:07;;;;;;;28.33;10.07;;;21.90;99.90;;;;;;4199172;28;20627;-82
2023/08/18 09:05:10;;;;;;;23.60;9.65;;;21.70;99.90;;;;;;4199214;28;20244;-82
2023/08/18 09:07:12;;;;;;;26.58;9.65;;;21.60;99.90;;;;;;4182517;28;20190;-82
2023/08/18 09:09:14;;;;;;;26.20;11.13;;;21.90;99.90;;;;;;4199346;28;20179;-82
2023/08/18 09:11:14;;;;;;;18.88;9.60;;;22.10;99.90;;;;;;4182589;28;20278;-82
2023/08/18 09:13:15;;;;;;;22.30;8.38;;;22.20;99.90;;;;;;4215790;28;20170;-82
2023/08/18 09:15:16;;;;;;;20.65;9.50;;;22.10;99.90;;;;;;4198998;28;20170;-82
2023/08/18 09:17:18;;;;;;;26.55;10.07;;;21.80;99.90;;;;;;4198712;28;20215;-82
2023/08/18 09:19:19;;;;;;;18.23;8.23;;;21.90;99.90;;;;;;4199165;28;20212;-82
2023/08/18 09:21:23;;;;;;;19.92;8.20;;;22.10;99.90;;;;;;4199028;28;20226;-82
2023/08/18 09:23:26;;;;;;;21.27;8.95;;;22.10;99.90;;;;;;4199007;28;20515;-82
2023/08/18 09:25:26;;;;;;;22.77;9.10;;;22.10;99.90;;;;;;4198878;28;20194;-82
2023/08/18 09:27:29;;;;;;;19.90;8.52;;;22.10;99.90;;;;;;4198733;28;20521;-90
2023/08/18 09:29:32;;;;;;;24.40;9.18;;;21.90;99.90;;;;;;4182238;28;20322;-82
2023/08/18 09:31:33;;;;;;;19.15;7.45;;;21.90;99.90;;;;;;4182306;28;20167;-82
2023/08/18 09:33:34;;;;;;;18.17;7.97;;;22.10;99.90;;;;;;4198696;28;20174;-82
2023/08/18 09:35:35;;;;;;;15.60;7.68;;;22.30;99.90;;;;;;4198332;28;20241;-82
2023/08/18 09:37:36;;;;;;;17.55;7.45;;;22.20;99.90;;;;;;4182268;28;20175;-82
2023/08/18 09:39:37;;;;;;;19.13;7.18;;;22.00;99.90;;;;;;4215607;28;20178;-82
2023/08/18 09:41:38;;;;;;;18.13;7.57;;;22.00;99.90;;;;;;4200257;28;20635;-82
2023/08/18 09:43:41;;;;;;;19.73;7.72;;;22.30;99.90;;;;;;4199783;28;20220;-82
2023/08/18 09:45:42;;;;;;;19.27;8.27;;;22.40;99.90;;;;;;4198518;28;20171;-82
2023/08/18 09:47:44;;;;;;;15.00;7.15;;;22.60;99.90;;;;;;4198552;28;20179;-82
2023/08/18 09:49:47;;;;;;;16.38;6.97;;;22.60;99.90;;;;;;4199140;28;20320;-82
2023/08/18 09:51:52;;;;;;;16.35;7.63;;;22.70;99.90;;;;;;4182036;28;20175;-82
2023/08/18 09:54:03;;;;;;;18.88;7.65;;;22.60;99.90;;;;;;4198625;28;20639;-82
2023/08/18 09:56:11;;;;;;;13.65;6.50;;;22.50;99.90;;;;;;4181726;28;20671;-82
2023/08/18 09:58:19;;;;;;;13.93;7.07;;;22.70;99.90;;;;;;4198390;28;20205;-82
2023/08/18 10:00:21;;;;;;;17.63;7.65;;;22.80;99.90;;;;;;4199338;28;20186;-83
2023/08/18 10:02:26;;;;;;;14.88;6.63;;;22.80;99.90;;;;;;4199521;28;20167;-82
2023/08/18 10:04:27;;;;;;;15.68;6.25;;;23.10;99.90;;;;;;4198417;28;20175;-82
2023/08/18 10:06:30;;;;;;;15.45;7.22;;;23.40;99.90;;;;;;4199471;28;20701;-82
2023/08/18 10:08:31;;;;;;;18.08;8.50;;;23.40;99.90;;;;;;4181502;28;20717;-82
2023/08/18 10:10:32;;;;;;;14.68;7.07;;;23.50;99.90;;;;;;4199374;28;20198;-83
2023/08/18 10:12:32;;;;;;;17.75;7.32;;;23.40;99.90;;;;;;4199352;28;20163;-82
2023/08/18 10:14:34;;;;;;;16.90;6.78;;;23.80;99.90;;;;;;4198048;28;20269;-82
2023/08/18 10:16:36;;;;;;;17.63;7.78;;;23.90;99.90;;;;;;4198047;28;20211;-82
2023/08/18 10:18:37;;;;;;;15.25;6.43;;;23.80;99.90;;;;;;4197857;28;20181;-82
2023/08/18 10:20:52;;;;;;;16.00;6.65;;;24.00;99.90;;;;;;4197935;28;20222;-83
2023/08/18 10:22:54;;;;;;;23.20;7.57;;;23.90;99.90;;;;;;4199064;28;20220;-82